Flood From: 18-02-2018 16:00 Until: 19-02-2018 16:00 warning for: Flood Level: Yellow info button

Although rather usual in this region, locally or potentially dangerous phenomena are expected. (such as local winds, summer thunderstorms, rising streams or high waves) Be aware and pay attention to the latest weather updates, especially if you carry out activities exposed to weather or close to a stream or shoreline. 


Meteo18 Weather Cam more information Meteo18 Weather Cam


Thunder radar more information blitzortung!


Rain radar more information rain snow radar


Visit our other weather sites:

Template documentation
and downloads

And another site



Weather Underground History page Text

Daily Summary for January 20, 2017 Units:  English    Metric   Both
« Previous Day
Next Day »
Daily Weekly Monthly Yearly Custom
  High: Low: Average:
Temperature: TemperatureC °F -8.1 °F -3.9 °F
Dew Point: DewpointC °F -9.2 °F -5.9 °F
Humidity: Humidity % 71 % 86 %
Wind Speed: WindSpeedKMH mph 0.0 mph 0.9 mph
Wind Gust: WindSpeedGustKMH mph - -
Wind:- - East
Pressure: PressurehPa in 1028.0 in -
Precipitation: 0.0 in    
Historical Graphs
 
 
Tabular Data for January 20, 2017
Time Temperature Dew Point Pressure Wind Wind Speed Wind Gust Humidity Rainfall Rate (Hourly)
TemperatureC °F DewpointC °F PressurehPa in Calm     Humidity % HourlyPrecipMM in
00:02 -5.4 °F -7.1 °F 1030.7 in Calm   1.6 mph 88 % 0.0 in
00:07 -5.4 °F -7.1 °F 1030.7 in Calm     88 % 0.0 in
00:12 -5.4 °F -7.1 °F 1030.7 in Calm   1.6 mph 88 % 0.0 in
00:17 -5.5 °F -7.2 °F 1030.7 in Calm   1.6 mph 88 % 0.0 in
00:22 -5.5 °F -7.0 °F 1030.4 in Calm   1.6 mph 89 % 0.0 in
00:27 -5.6 °F -7.1 °F 1030.4 in Calm   1.6 mph 89 % 0.0 in
00:32 -5.6 °F -7.1 °F 1030.4 in Calm   1.6 mph 89 % 0.0 in
00:37 -5.6 °F -7.1 °F 1030.4 in Calm   1.6 mph 89 % 0.0 in
00:42 -5.6 °F -7.3 °F 1030.4 in Calm   1.6 mph 88 % 0.0 in
00:47 -5.6 °F -7.1 °F 1030.4 in Calm   1.6 mph 89 % 0.0 in
00:52 -5.7 °F -7.2 °F 1030.4 in Calm   1.6 mph 89 % 0.0 in
00:57 -5.7 °F -7.2 °F 1030.4 in Calm   1.6 mph 89 % 0.0 in
01:02 -5.7 °F -7.2 °F 1030.4 in Calm   1.6 mph 89 % 0.0 in
01:07 -5.7 °F -7.4 °F 1030.4 in Calm   1.6 mph 88 % 0.0 in
01:12 -5.8 °F -7.3 °F 1030.0 in WNW 1.6 mph 1.6 mph 89 % 0.0 in
01:17 -5.7 °F -7.1 °F 1030.0 in Calm   1.6 mph 90 % 0.0 in
01:22 -5.7 °F -7.2 °F 1030.0 in NNW 1.6 mph 1.6 mph 89 % 0.0 in
01:27 -5.7 °F -7.2 °F 1030.0 in Calm   1.6 mph 89 % 0.0 in
01:32 -5.8 °F -7.3 °F 1030.0 in Calm   1.6 mph 89 % 0.0 in
01:37 -5.8 °F -7.3 °F 1030.0 in Calm   1.6 mph 89 % 0.0 in
01:42 -5.8 °F -7.3 °F 1030.0 in Calm   1.6 mph 89 % 0.0 in
01:47 -5.7 °F -7.2 °F 1030.0 in Calm   1.6 mph 89 % 0.0 in
01:52 -5.7 °F -7.2 °F 1030.0 in NNW 1.6 mph 1.6 mph 89 % 0.0 in
01:57 -5.7 °F -7.2 °F 1030.0 in Calm   1.6 mph 89 % 0.0 in
02:02 -5.8 °F -7.3 °F 1030.0 in Calm   1.6 mph 89 % 0.0 in
02:07 -5.8 °F -7.3 °F 1030.0 in Calm   1.6 mph 89 % 0.0 in
02:12 -5.9 °F -7.4 °F 1030.0 in North 1.6 mph 3.2 mph 89 % 0.0 in
02:17 -5.9 °F -7.4 °F 1029.7 in Calm   3.2 mph 89 % 0.0 in
02:22 -5.9 °F -7.4 °F 1029.7 in NNW 1.6 mph 3.2 mph 89 % 0.0 in
02:27 -5.9 °F -7.4 °F 1029.7 in North 1.6 mph 3.2 mph 89 % 0.0 in
02:32 -5.9 °F -7.4 °F 1029.7 in NNW 1.6 mph 3.2 mph 89 % 0.0 in
02:37 -5.9 °F -7.4 °F 1029.7 in North 1.6 mph 3.2 mph 89 % 0.0 in
02:42 -6.1 °F -7.6 °F 1030.0 in Calm   3.2 mph 89 % 0.0 in
02:52 -6.4 °F -7.9 °F 1029.7 in Calm   3.2 mph 89 % 0.0 in
02:57 -6.6 °F -8.1 °F 1030.0 in Calm   1.6 mph 89 % 0.0 in
03:02 -6.6 °F -8.0 °F 1030.0 in Calm   1.6 mph 90 % 0.0 in
03:07 -6.7 °F -8.1 °F 1030.0 in Calm     90 % 0.0 in
03:12 -6.7 °F -8.1 °F 1030.0 in Calm     90 % 0.0 in
03:17 -6.8 °F -8.0 °F 1030.0 in Calm     91 % 0.0 in
03:22 -6.8 °F -8.0 °F 1030.0 in Calm     91 % 0.0 in
03:27 -6.8 °F -8.0 °F 1030.0 in Calm     91 % 0.0 in
03:32 -6.8 °F -8.0 °F 1029.7 in Calm     91 % 0.0 in
03:37 -6.9 °F -8.1 °F 1029.7 in Calm     91 % 0.0 in
03:42 -6.9 °F -8.1 °F 1029.7 in Calm     91 % 0.0 in
03:47 -6.9 °F -8.1 °F 1029.7 in Calm     91 % 0.0 in
03:52 -7.0 °F -8.2 °F 1029.7 in Calm     91 % 0.0 in
03:57 -7.1 °F -8.3 °F 1029.7 in Calm   1.6 mph 91 % 0.0 in
04:02 -7.1 °F -8.3 °F 1029.7 in Calm   1.6 mph 91 % 0.0 in
04:12 -6.9 °F -8.1 °F 1029.3 in Calm   3.2 mph 91 % 0.0 in
04:17 -6.8 °F -8.0 °F 1029.3 in Calm   3.2 mph 91 % 0.0 in
04:22 -6.9 °F -8.1 °F 1029.3 in Calm   3.2 mph 91 % 0.0 in
04:27 -7.1 °F -8.5 °F 1029.3 in Calm   1.6 mph 90 % 0.0 in
04:32 -7.2 °F -8.4 °F 1029.3 in Calm   1.6 mph 91 % 0.0 in
04:37 -7.1 °F -8.3 °F 1029.3 in Calm   1.6 mph 91 % 0.0 in
04:42 -7.1 °F -8.3 °F 1029.3 in Calm   1.6 mph 91 % 0.0 in
04:47 -7.0 °F -8.2 °F 1029.3 in Calm   1.6 mph 91 % 0.0 in
04:52 -7.2 °F -8.4 °F 1029.3 in Calm   1.6 mph 91 % 0.0 in
04:57 -7.3 °F -8.5 °F 1029.3 in Calm   1.6 mph 91 % 0.0 in
05:02 -7.3 °F -8.5 °F 1029.3 in Calm   1.6 mph 91 % 0.0 in
05:07 -7.2 °F -8.3 °F 1029.3 in Calm   1.6 mph 92 % 0.0 in
05:12 -7.2 °F -8.4 °F 1029.3 in Calm   1.6 mph 91 % 0.0 in
05:17 -7.3 °F -8.5 °F 1029.3 in Calm   1.6 mph 91 % 0.0 in
05:22 -7.3 °F -8.4 °F 1029.3 in Calm   1.6 mph 92 % 0.0 in
05:32 -7.3 °F -8.4 °F 1029.3 in Calm     92 % 0.0 in
05:37 -7.3 °F -8.5 °F 1029.3 in Calm     91 % 0.0 in
05:42 -7.3 °F -8.5 °F 1029.3 in Calm     91 % 0.0 in
05:47 -7.3 °F -8.4 °F 1029.3 in Calm     92 % 0.0 in
05:52 -7.1 °F -8.2 °F 1029.3 in Calm     92 % 0.0 in
05:57 -7.2 °F -8.4 °F 1029.3 in Calm   1.6 mph 91 % 0.0 in
06:02 -7.3 °F -8.5 °F 1029.3 in Calm   1.6 mph 91 % 0.0 in
06:12 -7.4 °F -8.5 °F 1029.3 in Calm   1.6 mph 92 % 0.0 in
06:17 -7.7 °F -8.9 °F 1029.0 in Calm   1.6 mph 91 % 0.0 in
06:22 -7.8 °F -9.0 °F 1029.3 in Calm   1.6 mph 91 % 0.0 in
06:27 -7.8 °F -8.9 °F 1029.3 in NE 1.6 mph 1.6 mph 92 % 0.0 in
06:32 -7.6 °F -8.7 °F 1029.3 in Calm   1.6 mph 92 % 0.0 in
06:42 -7.7 °F -8.8 °F 1029.3 in NNE 1.6 mph 3.2 mph 92 % 0.0 in
06:47 -7.7 °F -8.8 °F 1029.3 in NE 1.6 mph 4.8 mph 92 % 0.0 in
06:52 -7.5 °F -8.6 °F 1029.3 in Calm   4.8 mph 92 % 0.0 in
06:57 -7.6 °F -8.7 °F 1029.0 in NNE 3.2 mph 4.8 mph 92 % 0.0 in
07:02 -7.5 °F -8.6 °F 1029.3 in NNE 3.2 mph 4.8 mph 92 % 0.0 in
07:12 -7.2 °F -8.3 °F 1029.3 in NE 3.2 mph 8.0 mph 92 % 0.0 in
07:17 -7.1 °F -8.2 °F 1029.3 in NE 4.8 mph 8.0 mph 92 % 0.0 in
07:22 -7.0 °F -8.2 °F 1029.3 in Calm   8.0 mph 91 % 0.0 in
07:32 -7.1 °F -8.3 °F 1029.3 in NE 1.6 mph 8.0 mph 91 % 0.0 in
07:37 -7.1 °F -8.3 °F 1029.3 in NNE 3.2 mph 6.4 mph 91 % 0.0 in
07:42 -7.2 °F -8.4 °F 1029.3 in Calm   6.4 mph 91 % 0.0 in
07:47 -7.4 °F -8.6 °F 1029.3 in Calm   6.4 mph 91 % 0.0 in
07:52 -7.4 °F -8.6 °F 1029.3 in Calm   6.4 mph 91 % 0.0 in
07:57 -7.5 °F -8.7 °F 1029.3 in Calm   3.2 mph 91 % 0.0 in
08:02 -7.6 °F -8.8 °F 1029.3 in Calm   3.2 mph 91 % 0.0 in
08:07 -7.7 °F -8.9 °F 1029.3 in NNE 1.6 mph 1.6 mph 91 % 0.0 in
08:12 -7.7 °F -8.9 °F 1029.3 in NE 1.6 mph 1.6 mph 91 % 0.0 in
08:17 -7.7 °F -8.8 °F 1029.3 in Calm   3.2 mph 92 % 0.0 in
08:22 -7.7 °F -8.8 °F 1029.3 in Calm   3.2 mph 92 % 0.0 in
08:32 -7.7 °F -8.8 °F 1029.3 in Calm   3.2 mph 92 % 0.0 in
08:37 -7.7 °F -8.9 °F 1029.3 in Calm   1.6 mph 91 % 0.0 in
08:42 -7.8 °F -8.9 °F 1029.3 in Calm   1.6 mph 92 % 0.0 in
08:47 -7.9 °F -9.1 °F 1029.3 in Calm   1.6 mph 91 % 0.0 in
08:52 -8.1 °F -9.2 °F 1029.3 in Calm   1.6 mph 92 % 0.0 in
08:57 -8.0 °F -9.1 °F 1029.3 in Calm     92 % 0.0 in
09:07 -7.8 °F -8.9 °F 1029.3 in Calm     92 % 0.0 in
09:12 -7.8 °F -8.9 °F 1029.3 in Calm     92 % 0.0 in
09:17 -7.7 °F -8.8 °F 1029.3 in Calm     92 % 0.0 in
09:22 -7.6 °F -8.7 °F 1029.7 in Calm     92 % 0.0 in
09:27 -7.4 °F -8.5 °F 1029.7 in Calm     92 % 0.0 in
09:32 -7.3 °F -8.4 °F 1029.7 in Calm     92 % 0.0 in
09:37 -7.1 °F -8.2 °F 1029.7 in Calm     92 % 0.0 in
09:42 -6.9 °F -8.1 °F 1029.7 in Calm     91 % 0.0 in
09:47 -6.7 °F -7.9 °F 1029.7 in Calm   1.6 mph 91 % 0.0 in
09:52 -6.6 °F -7.8 °F 1029.7 in Calm   1.6 mph 91 % 0.0 in
09:57 -6.5 °F -7.7 °F 1029.7 in NE 1.6 mph 1.6 mph 91 % 0.0 in
10:02 -6.4 °F -7.8 °F 1029.7 in Calm   1.6 mph 90 % 0.0 in
10:07 -6.2 °F -7.6 °F 1029.7 in NNW 1.6 mph 3.2 mph 90 % 0.0 in
10:12 -6.1 °F -7.5 °F 1029.7 in Calm   3.2 mph 90 % 0.0 in
10:17 -5.9 °F -7.4 °F 1029.7 in NNE 1.6 mph 3.2 mph 89 % 0.0 in
10:22 -5.7 °F -7.1 °F 1029.7 in NE 1.6 mph 3.2 mph 90 % 0.0 in
10:27 -5.6 °F -7.3 °F 1029.3 in Calm   3.2 mph 88 % 0.0 in
10:32 -5.4 °F -7.1 °F 1029.7 in NE 1.6 mph 3.2 mph 88 % 0.0 in
10:37 -5.3 °F -7.0 °F 1029.7 in Calm   4.8 mph 88 % 0.0 in
10:42 -5.2 °F -7.0 °F 1029.7 in Calm   4.8 mph 87 % 0.0 in
10:47 -5.1 °F -6.8 °F 1029.7 in Calm   3.2 mph 88 % 0.0 in
10:52 -4.9 °F -6.6 °F 1029.7 in Calm   3.2 mph 88 % 0.0 in
10:57 -4.7 °F -6.5 °F 1029.7 in SE 1.6 mph 3.2 mph 87 % 0.0 in
11:02 -4.4 °F -6.2 °F 1029.7 in Calm   3.2 mph 87 % 0.0 in
11:07 -4.3 °F -6.1 °F 1029.7 in Calm   3.2 mph 87 % 0.0 in
11:12 -4.1 °F -6.1 °F 1029.7 in Calm   3.2 mph 86 % 0.0 in
11:17 -3.8 °F -5.8 °F 1029.7 in Calm   3.2 mph 86 % 0.0 in
11:22 -3.5 °F -5.8 °F 1029.7 in Calm   4.8 mph 84 % 0.0 in
11:27 -3.4 °F -5.9 °F 1029.7 in ESE 6.4 mph 6.4 mph 83 % 0.0 in
11:32 -3.4 °F -6.0 °F 1029.7 in Calm   4.8 mph 82 % 0.0 in
11:37 -3.2 °F -5.5 °F 1029.7 in SE 1.6 mph 8.0 mph 84 % 0.0 in
11:42 -3.2 °F -5.8 °F 1029.7 in ESE 4.8 mph 8.0 mph 82 % 0.0 in
11:47 -3.2 °F -5.7 °F 1029.3 in ESE 1.6 mph 6.4 mph 83 % 0.0 in
11:52 -3.0 °F -5.5 °F 1029.3 in Calm   6.4 mph 83 % 0.0 in
11:57 -2.9 °F -5.4 °F 1029.3 in SE 1.6 mph 6.4 mph 83 % 0.0 in
12:02 -2.9 °F -5.4 °F 1029.3 in Calm   6.4 mph 83 % 0.0 in
12:07 -2.7 °F -5.2 °F 1029.3 in Calm   8.0 mph 83 % 0.0 in
12:12 -2.5 °F -4.8 °F 1029.3 in Calm   6.4 mph 84 % 0.0 in
12:17 -2.3 °F -4.8 °F 1029.0 in East 4.8 mph 6.4 mph 83 % 0.0 in
12:22 -2.5 °F -5.1 °F 1029.0 in South 3.2 mph 4.8 mph 82 % 0.0 in
12:27 -2.3 °F -4.8 °F 1029.0 in East 1.6 mph 4.8 mph 83 % 0.0 in
12:32 -2.2 °F -4.9 °F 1029.0 in SE 1.6 mph 6.4 mph 82 % 0.0 in
12:37 -2.1 °F -4.6 °F 1029.0 in Calm   6.4 mph 83 % 0.0 in
12:42 -1.9 °F -4.6 °F 1029.0 in Calm   6.4 mph 82 % 0.0 in
12:47 -1.9 °F -4.7 °F 1028.7 in ENE 1.6 mph 4.8 mph 81 % 0.0 in
12:52 -1.6 °F -4.3 °F 1029.0 in ESE 1.6 mph 4.8 mph 82 % 0.0 in
12:57 -1.5 °F -4.5 °F 1028.7 in Calm   4.8 mph 80 % 0.0 in
13:02 -1.6 °F -4.3 °F 1028.7 in Calm   4.8 mph 82 % 0.0 in
13:12 -1.3 °F -4.3 °F 1028.7 in NE 3.2 mph 4.8 mph 80 % 0.0 in
13:17 -1.1 °F -3.9 °F 1028.7 in East 4.8 mph 4.8 mph 81 % 0.0 in
13:22 -1.1 °F -4.3 °F 1028.7 in ENE 1.6 mph 6.4 mph 79 % 0.0 in
13:32 -0.8 °F -4.0 °F 1028.7 in NE 4.8 mph 6.4 mph 79 % 0.0 in
13:37 -0.7 °F -3.7 °F 1028.7 in Calm   8.0 mph 80 % 0.0 in
13:42 -0.7 °F -3.9 °F 1028.7 in NE 4.8 mph 8.0 mph 79 % 0.0 in
13:47 -0.8 °F -4.0 °F 1028.7 in NNE 4.8 mph 8.0 mph 79 % 0.0 in
13:52 -0.6 °F -3.6 °F 1028.7 in NE 4.8 mph 6.4 mph 80 % 0.0 in
13:57 -0.6 °F -3.8 °F 1028.7 in East 1.6 mph 8.0 mph 79 % 0.0 in
14:02 -0.4 °F -3.8 °F 1028.7 in East 3.2 mph 8.0 mph 78 % 0.0 in
14:07 -0.4 °F -3.8 °F 1028.3 in NE 6.4 mph 8.0 mph 78 % 0.0 in
14:12 -0.3 °F -3.5 °F 1028.3 in NNE 1.6 mph 8.0 mph 79 % 0.0 in
14:17 -0.2 °F -3.6 °F 1028.3 in Calm   8.0 mph 78 % 0.0 in
14:27 0.1 °F -3.1 °F 1028.3 in NNE 1.6 mph 8.0 mph 79 % 0.0 in
14:32 0.2 °F -3.2 °F 1028.3 in NNE 1.6 mph 8.0 mph 78 % 0.0 in
14:37 0.3 °F -3.3 °F 1028.3 in NE 3.2 mph 8.0 mph 77 % 0.0 in
14:42 0.4 °F -3.2 °F 1028.3 in ENE 3.2 mph 6.4 mph 77 % 0.0 in
14:47 0.5 °F -3.2 °F 1028.3 in East 1.6 mph 6.4 mph 76 % 0.0 in
14:52 0.6 °F -3.3 °F 1028.3 in NE 4.8 mph 6.4 mph 75 % 0.0 in
14:57 0.7 °F -3.0 °F 1028.3 in Calm   6.4 mph 76 % 0.0 in
15:02 0.8 °F -3.1 °F 1028.3 in NE 1.6 mph 6.4 mph 75 % 0.0 in
15:07 0.8 °F -3.1 °F 1028.3 in NE 3.2 mph 6.4 mph 75 % 0.0 in
15:12 0.8 °F -3.1 °F 1028.3 in NNE 1.6 mph 6.4 mph 75 % 0.0 in
15:17 1.0 °F -2.9 °F 1028.3 in ENE 1.6 mph 6.4 mph 75 % 0.0 in
15:22 1.1 °F -2.8 °F 1028.3 in ENE 3.2 mph 6.4 mph 75 % 0.0 in
15:27 1.2 °F -2.9 °F 1028.3 in Calm   4.8 mph 74 % 0.0 in
15:32 1.3 °F -3.0 °F 1028.3 in Calm   4.8 mph 73 % 0.0 in
15:37 1.4 °F -2.9 °F 1028.3 in Calm   4.8 mph 73 % 0.0 in
15:42 1.6 °F -2.7 °F 1028.3 in Calm   4.8 mph 73 % 0.0 in
15:47 1.8 °F -2.5 °F 1028.3 in Calm   1.6 mph 73 % 0.0 in
15:52 1.9 °F -2.6 °F 1028.3 in NE 1.6 mph 3.2 mph 72 % 0.0 in
15:57 1.8 °F -2.5 °F 1028.0 in Calm   3.2 mph 73 % 0.0 in
16:02 1.6 °F -2.9 °F 1028.0 in NNE 1.6 mph 3.2 mph 72 % 0.0 in
16:07 1.6 °F -2.7 °F 1028.0 in Calm   3.2 mph 73 % 0.0 in
16:12 1.8 °F -2.5 °F 1028.0 in Calm   4.8 mph 73 % 0.0 in
16:37 2.0 °F -2.5 °F 1028.0 in Calm   1.6 mph 72 % 0.0 in
16:42 2.0 °F -2.7 °F 1028.0 in Calm     71 % 0.0 in
16:47 1.7 °F -2.6 °F 1028.0 in Calm     73 % 0.0 in
16:52 1.6 °F -2.5 °F 1028.0 in Calm     74 % 0.0 in
16:57 1.4 °F -2.7 °F 1028.3 in NE 3.2 mph 3.2 mph 74 % 0.0 in
17:02 1.2 °F -2.9 °F 1028.3 in NE 1.6 mph 3.2 mph 74 % 0.0 in
17:07 1.1 °F -2.8 °F 1028.3 in NE 1.6 mph 3.2 mph 75 % 0.0 in
17:12 0.9 °F -2.7 °F 1028.3 in Calm   3.2 mph 77 % 0.0 in
17:17 0.8 °F -2.8 °F 1028.3 in NE 1.6 mph 3.2 mph 77 % 0.0 in
17:22 0.6 °F -2.8 °F 1028.3 in NE 3.2 mph 4.8 mph 78 % 0.0 in
17:27 0.4 °F -3.0 °F 1028.3 in NE 3.2 mph 4.8 mph 78 % 0.0 in
17:32 0.3 °F -2.9 °F 1028.3 in NNE 3.2 mph 4.8 mph 79 % 0.0 in
17:42 0.2 °F -3.0 °F 1028.3 in NE 3.2 mph 4.8 mph 79 % 0.0 in
17:47 0.1 °F -3.1 °F 1028.3 in Calm   4.8 mph 79 % 0.0 in
17:52 -0.2 °F -3.1 °F 1028.3 in Calm   4.8 mph 81 % 0.0 in
17:57 -0.5 °F -3.2 °F 1028.3 in Calm   3.2 mph 82 % 0.0 in
18:02 -0.7 °F -3.2 °F 1028.3 in NNE 4.8 mph 4.8 mph 83 % 0.0 in
18:07 -0.6 °F -3.3 °F 1028.3 in NE 4.8 mph 6.4 mph 82 % 0.0 in
18:12 -0.5 °F -3.2 °F 1028.3 in NE 4.8 mph 6.4 mph 82 % 0.0 in
18:17 -0.6 °F -3.3 °F 1028.3 in NE 4.8 mph 6.4 mph 82 % 0.0 in
18:22 -0.7 °F -3.2 °F 1028.3 in NNE 3.2 mph 8.0 mph 83 % 0.0 in
18:27 -0.8 °F -3.2 °F 1028.3 in NNE 3.2 mph 8.0 mph 84 % 0.0 in
18:32 -0.8 °F -3.3 °F 1028.3 in NNE 1.6 mph 6.4 mph 83 % 0.0 in
18:37 -0.9 °F -3.4 °F 1028.3 in NE 1.6 mph 6.4 mph 83 % 0.0 in
18:42 -1.1 °F -3.5 °F 1028.3 in NNE 3.2 mph 11.3 mph 84 % 0.0 in
18:47 -1.2 °F -3.6 °F 1028.3 in NNE 1.6 mph 6.4 mph 84 % 0.0 in
18:52 -1.3 °F -3.5 °F 1028.3 in NNE 3.2 mph 6.4 mph 85 % 0.0 in
18:57 -1.6 °F -3.8 °F 1028.3 in North 1.6 mph 4.8 mph 85 % 0.0 in
19:02 -1.7 °F -3.7 °F 1028.3 in NNE 3.2 mph 4.8 mph 86 % 0.0 in
19:12 -1.7 °F -3.7 °F 1028.3 in NNE 3.2 mph 6.4 mph 86 % 0.0 in
19:17 -1.8 °F -3.8 °F 1028.3 in NE 1.6 mph 6.4 mph 86 % 0.0 in
19:22 -1.8 °F -3.8 °F 1028.3 in NE 1.6 mph 6.4 mph 86 % 0.0 in
19:27 -1.9 °F -3.9 °F 1028.3 in NNE 1.6 mph 6.4 mph 86 % 0.0 in
19:32 -1.8 °F -3.8 °F 1028.3 in NE 3.2 mph 6.4 mph 86 % 0.0 in
19:37 -1.8 °F -3.8 °F 1028.3 in North 1.6 mph 6.4 mph 86 % 0.0 in
19:42 -1.9 °F -3.9 °F 1028.3 in Calm   6.4 mph 86 % 0.0 in
19:47 -2.1 °F -4.1 °F 1028.3 in NNE 1.6 mph 4.8 mph 86 % 0.0 in
19:52 -2.1 °F -4.1 °F 1028.3 in North 3.2 mph 4.8 mph 86 % 0.0 in
19:57 -2.2 °F -4.2 °F 1028.3 in NNE 1.6 mph 4.8 mph 86 % 0.0 in
20:02 -2.3 °F -4.3 °F 1028.3 in NNW 1.6 mph 4.8 mph 86 % 0.0 in
20:07 -2.3 °F -4.2 °F 1028.3 in Calm   3.2 mph 87 % 0.0 in
20:12 -2.4 °F -4.3 °F 1028.3 in Calm   3.2 mph 87 % 0.0 in
20:17 -2.5 °F -4.4 °F 1028.3 in Calm   1.6 mph 87 % 0.0 in
20:22 -2.8 °F -4.7 °F 1028.3 in Calm   1.6 mph 87 % 0.0 in
20:32 -2.7 °F -4.4 °F 1028.3 in Calm   1.6 mph 88 % 0.0 in
20:37 -2.7 °F -4.6 °F 1028.3 in Calm   1.6 mph 87 % 0.0 in
20:42 -2.7 °F -4.6 °F 1028.3 in NNW 1.6 mph 1.6 mph 87 % 0.0 in
20:47 -2.7 °F -4.6 °F 1028.3 in NNW 1.6 mph 1.6 mph 87 % 0.0 in
20:52 -2.8 °F -4.7 °F 1028.3 in Calm   1.6 mph 87 % 0.0 in
20:57 -2.8 °F -4.7 °F 1028.3 in Calm   1.6 mph 87 % 0.0 in
21:02 -2.9 °F -4.8 °F 1028.3 in Calm   1.6 mph 87 % 0.0 in
21:07 -2.9 °F -4.6 °F 1028.3 in Calm   1.6 mph 88 % 0.0 in
21:12 -3.1 °F -4.8 °F 1028.3 in Calm     88 % 0.0 in
21:17 -3.3 °F -5.0 °F 1028.3 in Calm     88 % 0.0 in
21:22 -3.4 °F -5.0 °F 1028.3 in Calm     89 % 0.0 in
21:27 -3.7 °F -5.2 °F 1028.3 in Calm     89 % 0.0 in
21:32 -3.6 °F -4.9 °F 1028.3 in Calm     91 % 0.0 in
21:37 -3.2 °F -4.6 °F 1028.3 in Calm     90 % 0.0 in
21:42 -3.2 °F -4.8 °F 1028.3 in Calm     89 % 0.0 in
21:47 -3.4 °F -5.1 °F 1028.3 in Calm     88 % 0.0 in
21:52 -3.6 °F -5.1 °F 1028.3 in Calm     89 % 0.0 in
21:57 -3.7 °F -5.2 °F 1028.3 in Calm     89 % 0.0 in
22:02 -3.8 °F -5.3 °F 1028.3 in Calm     89 % 0.0 in
22:07 -3.8 °F -5.2 °F 1028.3 in Calm     90 % 0.0 in
22:12 -3.7 °F -5.1 °F 1028.3 in Calm   1.6 mph 90 % 0.0 in
22:17 -3.7 °F -5.1 °F 1028.3 in Calm   1.6 mph 90 % 0.0 in
22:22 -3.9 °F -5.4 °F 1028.3 in Calm   1.6 mph 89 % 0.0 in
22:27 -4.1 °F -5.5 °F 1028.3 in Calm   1.6 mph 90 % 0.0 in
22:32 -3.9 °F -5.3 °F 1028.0 in Calm   1.6 mph 90 % 0.0 in
22:37 -3.8 °F -5.2 °F 1028.3 in Calm   1.6 mph 90 % 0.0 in
22:42 -3.7 °F -5.1 °F 1028.0 in NNW 1.6 mph 1.6 mph 90 % 0.0 in
22:47 -3.7 °F -5.1 °F 1028.0 in Calm   3.2 mph 90 % 0.0 in
22:52 -3.8 °F -5.3 °F 1028.0 in NW 1.6 mph 3.2 mph 89 % 0.0 in
23:02 -3.8 °F -5.3 °F 1028.0 in Calm   3.2 mph 89 % 0.0 in
23:07 -4.3 °F -5.8 °F 1028.0 in Calm   1.6 mph 89 % 0.0 in
23:12 -4.6 °F -5.8 °F 1028.0 in Calm   1.6 mph 91 % 0.0 in
23:17 -4.5 °F -5.6 °F 1028.3 in Calm   1.6 mph 92 % 0.0 in
23:22 -4.6 °F -5.8 °F 1028.3 in WNW 1.6 mph 1.6 mph 91 % 0.0 in
23:27 -4.5 °F -5.6 °F 1028.0 in WNW 1.6 mph 1.6 mph 92 % 0.0 in
23:32 -4.2 °F -5.2 °F 1028.3 in Calm   1.6 mph 93 % 0.0 in
23:37 -4.0 °F -5.3 °F 1028.3 in Calm   1.6 mph 91 % 0.0 in
23:42 -4.7 °F -6.1 °F 1028.3 in Calm   1.6 mph 90 % 0.0 in
23:47 -4.9 °F -6.0 °F 1028.3 in WNW 1.6 mph   92 % 0.0 in
23:52 -4.9 °F -6.1 °F 1028.3 in Calm   3.2 mph 91 % 0.0 in
23:57 -4.7 °F -5.7 °F 1028.3 in Calm   3.2 mph 93 % 0.0 in
Meteo18
Compliments of Weather Underground - 4 mb

Script developed by  Jim McMurry - jmcmurry@mwt.net Adapted for the template by  Wim van der Kuil - Leuven-Template.eu

You find our weather info also at:

European Weather Network

Weather Underground

Equipment we use:

Weather-station
Davis Vue

Weather-program
Meteobridge

Weather-server
Raspberry PI 2 B+

Provider
1 and 1

Davis Vue

Meteobridge

Raspberry PI 2 B+

1 and 1